sensor_id;sensor_type;location;lat;lon;timestamp;pressure;altitude;pressure_sealevel;temperature;humidity
45731;BME280;31440;48.584;13.460;2023-03-31T00:02:08;96477.19;;;4.96;100.00
45731;BME280;31440;48.584;13.460;2023-03-31T00:05:19;96438.06;;;4.80;100.00
45731;BME280;31440;48.584;13.460;2023-03-31T00:08:27;96478.00;;;4.98;100.00
45731;BME280;31440;48.584;13.460;2023-03-31T00:11:33;96469.41;;;4.59;100.00
45731;BME280;31440;48.584;13.460;2023-03-31T00:14:39;96473.22;;;4.41;100.00
45731;BME280;31440;48.584;13.460;2023-03-31T00:17:43;96485.56;;;4.66;100.00
45731;BME280;31440;48.584;13.460;2023-03-31T00:20:52;96465.31;;;4.49;100.00
45731;BME280;31440;48.584;13.460;2023-03-31T00:23:58;96470.31;;;4.58;100.00
45731;BME280;31440;48.584;13.460;2023-03-31T00:27:04;96461.34;;;4.76;100.00
45731;BME280;31440;48.584;13.460;2023-03-31T00:30:11;96454.31;;;4.81;100.00
45731;BME280;31440;48.584;13.460;2023-03-31T00:33:16;96437.75;;;4.92;100.00
45731;BME280;31440;48.584;13.460;2023-03-31T00:36:22;96409.66;;;4.82;100.00
45731;BME280;31440;48.584;13.460;2023-03-31T00:39:32;96387.34;;;4.81;100.00
45731;BME280;31440;48.584;13.460;2023-03-31T00:42:40;96405.16;;;4.91;100.00
45731;BME280;31440;48.584;13.460;2023-03-31T00:45:45;96400.19;;;4.82;100.00
45731;BME280;31440;48.584;13.460;2023-03-31T00:48:52;96410.22;;;4.96;100.00
45731;BME280;31440;48.584;13.460;2023-03-31T00:52:12;96407.44;;;5.04;100.00
45731;BME280;31440;48.584;13.460;2023-03-31T00:55:24;96402.50;;;4.94;100.00
45731;BME280;31440;48.584;13.460;2023-03-31T00:58:31;96402.97;;;4.36;100.00
45731;BME280;31440;48.584;13.460;2023-03-31T01:01:38;96394.84;;;4.54;100.00
45731;BME280;31440;48.584;13.460;2023-03-31T01:04:53;96397.66;;;4.44;100.00
45731;BME280;31440;48.584;13.460;2023-03-31T01:08:01;96388.00;;;4.53;100.00
45731;BME280;31440;48.584;13.460;2023-03-31T01:11:08;96384.16;;;4.33;100.00
45731;BME280;31440;48.584;13.460;2023-03-31T01:14:13;96384.38;;;4.23;100.00
45731;BME280;31440;48.584;13.460;2023-03-31T01:17:20;96368.41;;;4.08;100.00
45731;BME280;31440;48.584;13.460;2023-03-31T01:27:25;96356.88;;;3.38;100.00
45731;BME280;31440;48.584;13.460;2023-03-31T01:37:48;96351.81;;;3.35;100.00
45731;BME280;31440;48.584;13.460;2023-03-31T01:41:12;96347.81;;;3.65;100.00
45731;BME280;31440;48.584;13.460;2023-03-31T01:44:42;96346.34;;;3.53;100.00
45731;BME280;31440;48.584;13.460;2023-03-31T01:47:55;96325.59;;;3.17;100.00
45731;BME280;31440;48.584;13.460;2023-03-31T01:51:31;96345.25;;;3.18;100.00
45731;BME280;31440;48.584;13.460;2023-03-31T01:54:39;96315.47;;;3.07;100.00
45731;BME280;31440;48.584;13.460;2023-03-31T01:57:51;96334.81;;;3.28;100.00
45731;BME280;31440;48.584;13.460;2023-03-31T02:01:02;96340.19;;;3.15;100.00
45731;BME280;31440;48.584;13.460;2023-03-31T02:04:16;96304.50;;;3.00;100.00
45731;BME280;31440;48.584;13.460;2023-03-31T02:07:30;96293.78;;;3.23;100.00
45731;BME280;31440;48.584;13.460;2023-03-31T02:10:35;96284.00;;;2.97;100.00
45731;BME280;31440;48.584;13.460;2023-03-31T02:13:45;96288.56;;;3.28;100.00
45731;BME280;31440;48.584;13.460;2023-03-31T02:16:53;96299.97;;;3.13;100.00
45731;BME280;31440;48.584;13.460;2023-03-31T02:20:06;96305.22;;;3.05;100.00
45731;BME280;31440;48.584;13.460;2023-03-31T02:23:16;96310.47;;;3.01;100.00
45731;BME280;31440;48.584;13.460;2023-03-31T02:26:28;96302.69;;;3.04;100.00
45731;BME280;31440;48.584;13.460;2023-03-31T02:29:34;96304.22;;;3.14;100.00
45731;BME280;31440;48.584;13.460;2023-03-31T02:32:41;96285.63;;;3.01;100.00
45731;BME280;31440;48.584;13.460;2023-03-31T02:35:47;96281.72;;;2.80;100.00
45731;BME280;31440;48.584;13.460;2023-03-31T02:39:02;96295.69;;;3.13;100.00
45731;BME280;31440;48.584;13.460;2023-03-31T02:42:08;96282.53;;;3.29;100.00
45731;BME280;31440;48.584;13.460;2023-03-31T02:48:47;96270.34;;;2.94;100.00
45731;BME280;31440;48.584;13.460;2023-03-31T03:05:49;96253.41;;;3.30;100.00
45731;BME280;31440;48.584;13.460;2023-03-31T03:09:43;96210.56;;;2.85;100.00
45731;BME280;31440;48.584;13.460;2023-03-31T03:19:22;96200.47;;;2.78;100.00
45731;BME280;31440;48.584;13.460;2023-03-31T03:22:27;96223.84;;;3.09;100.00
45731;BME280;31440;48.584;13.460;2023-03-31T03:25:32;96220.44;;;3.07;100.00
45731;BME280;31440;48.584;13.460;2023-03-31T03:28:37;96214.38;;;3.11;100.00
45731;BME280;31440;48.584;13.460;2023-03-31T03:31:42;96210.16;;;3.08;100.00
45731;BME280;31440;48.584;13.460;2023-03-31T03:34:46;96203.69;;;3.32;100.00
45731;BME280;31440;48.584;13.460;2023-03-31T03:37:51;96177.91;;;2.94;100.00
45731;BME280;31440;48.584;13.460;2023-03-31T03:40:55;96199.00;;;3.09;100.00
45731;BME280;31440;48.584;13.460;2023-03-31T03:44:00;96195.78;;;3.00;100.00
45731;BME280;31440;48.584;13.460;2023-03-31T03:47:04;96212.97;;;2.95;100.00
45731;BME280;31440;48.584;13.460;2023-03-31T03:50:10;96219.66;;;3.03;100.00
45731;BME280;31440;48.584;13.460;2023-03-31T03:53:18;96190.16;;;2.81;100.00
45731;BME280;31440;48.584;13.460;2023-03-31T03:56:22;96215.13;;;3.17;100.00
45731;BME280;31440;48.584;13.460;2023-03-31T03:59:27;96204.69;;;3.23;100.00
45731;BME280;31440;48.584;13.460;2023-03-31T04:02:31;96200.53;;;3.19;100.00
45731;BME280;31440;48.584;13.460;2023-03-31T04:05:36;96198.78;;;3.20;100.00
45731;BME280;31440;48.584;13.460;2023-03-31T04:08:41;96185.59;;;3.37;100.00
45731;BME280;31440;48.584;13.460;2023-03-31T04:11:46;96158.94;;;3.01;100.00
45731;BME280;31440;48.584;13.460;2023-03-31T04:14:50;96153.31;;;3.23;100.00
45731;BME280;31440;48.584;13.460;2023-03-31T04:17:55;96150.47;;;3.37;100.00
45731;BME280;31440;48.584;13.460;2023-03-31T04:21:02;96134.91;;;3.03;100.00
45731;BME280;31440;48.584;13.460;2023-03-31T04:24:07;96169.84;;;3.12;100.00
45731;BME280;31440;48.584;13.460;2023-03-31T04:27:12;96171.78;;;3.41;100.00
45731;BME280;31440;48.584;13.460;2023-03-31T04:30:16;96167.34;;;3.49;100.00
45731;BME280;31440;48.584;13.460;2023-03-31T04:33:34;96133.38;;;3.36;100.00
45731;BME280;31440;48.584;13.460;2023-03-31T04:36:44;96155.28;;;3.52;100.00
45731;BME280;31440;48.584;13.460;2023-03-31T04:39:52;96156.00;;;3.57;100.00
45731;BME280;31440;48.584;13.460;2023-03-31T04:42:58;96142.47;;;3.51;100.00
45731;BME280;31440;48.584;13.460;2023-03-31T04:46:02;96134.09;;;3.41;100.00
45731;BME280;31440;48.584;13.460;2023-03-31T04:49:07;96135.13;;;3.34;100.00
45731;BME280;31440;48.584;13.460;2023-03-31T04:52:12;96121.75;;;3.55;100.00
45731;BME280;31440;48.584;13.460;2023-03-31T04:55:17;96117.94;;;3.73;100.00
45731;BME280;31440;48.584;13.460;2023-03-31T04:58:21;96120.19;;;3.87;100.00
45731;BME280;31440;48.584;13.460;2023-03-31T05:01:26;96112.59;;;3.82;100.00
45731;BME280;31440;48.584;13.460;2023-03-31T05:04:31;96104.09;;;3.79;100.00
45731;BME280;31440;48.584;13.460;2023-03-31T05:07:35;96078.06;;;3.92;100.00
45731;BME280;31440;48.584;13.460;2023-03-31T05:10:40;96114.25;;;3.85;100.00
45731;BME280;31440;48.584;13.460;2023-03-31T05:13:44;96097.34;;;4.10;100.00
45731;BME280;31440;48.584;13.460;2023-03-31T05:16:50;96088.72;;;4.11;100.00
45731;BME280;31440;48.584;13.460;2023-03-31T05:19:54;96089.50;;;4.15;100.00
45731;BME280;31440;48.584;13.460;2023-03-31T05:22:59;96083.88;;;4.01;100.00
45731;BME280;31440;48.584;13.460;2023-03-31T05:26:04;96096.19;;;4.22;100.00
45731;BME280;31440;48.584;13.460;2023-03-31T05:29:09;96090.38;;;4.46;100.00
45731;BME280;31440;48.584;13.460;2023-03-31T05:32:14;96089.50;;;4.47;100.00
45731;BME280;31440;48.584;13.460;2023-03-31T05:35:20;96090.78;;;4.63;100.00
45731;BME280;31440;48.584;13.460;2023-03-31T05:38:26;96084.16;;;4.55;100.00
45731;BME280;31440;48.584;13.460;2023-03-31T05:41:35;96088.31;;;4.60;100.00
45731;BME280;31440;48.584;13.460;2023-03-31T05:44:40;96079.72;;;4.91;100.00
45731;BME280;31440;48.584;13.460;2023-03-31T05:47:44;96053.84;;;4.34;100.00
45731;BME280;31440;48.584;13.460;2023-03-31T05:50:49;96062.69;;;4.56;100.00
45731;BME280;31440;48.584;13.460;2023-03-31T05:53:53;96063.19;;;4.69;100.00
45731;BME280;31440;48.584;13.460;2023-03-31T05:56:58;96047.06;;;4.62;100.00
45731;BME280;31440;48.584;13.460;2023-03-31T06:00:03;96077.38;;;4.52;100.00
45731;BME280;31440;48.584;13.460;2023-03-31T06:03:09;96047.22;;;4.56;100.00
45731;BME280;31440;48.584;13.460;2023-03-31T06:06:14;96051.38;;;4.91;100.00
45731;BME280;31440;48.584;13.460;2023-03-31T06:09:20;96029.44;;;5.07;100.00
45731;BME280;31440;48.584;13.460;2023-03-31T06:12:24;96033.81;;;5.33;100.00
45731;BME280;31440;48.584;13.460;2023-03-31T06:15:29;96001.09;;;5.07;100.00
45731;BME280;31440;48.584;13.460;2023-03-31T06:18:35;96026.75;;;5.10;100.00
45731;BME280;31440;48.584;13.460;2023-03-31T06:21:40;96033.06;;;5.00;100.00
45731;BME280;31440;48.584;13.460;2023-03-31T06:24:44;95996.22;;;4.98;100.00
45731;BME280;31440;48.584;13.460;2023-03-31T06:27:49;96012.19;;;5.09;100.00
45731;BME280;31440;48.584;13.460;2023-03-31T06:31:21;96024.59;;;4.96;100.00
45731;BME280;31440;48.584;13.460;2023-03-31T06:34:26;95984.97;;;4.73;100.00
45731;BME280;31440;48.584;13.460;2023-03-31T06:37:30;95999.91;;;5.17;100.00
45731;BME280;31440;48.584;13.460;2023-03-31T06:40:35;96003.50;;;5.40;100.00
45731;BME280;31440;48.584;13.460;2023-03-31T06:43:40;95985.41;;;5.41;100.00
45731;BME280;31440;48.584;13.460;2023-03-31T06:46:45;95982.97;;;5.10;100.00
45731;BME280;31440;48.584;13.460;2023-03-31T06:49:49;95949.97;;;4.36;100.00
45731;BME280;31440;48.584;13.460;2023-03-31T06:52:54;95951.06;;;4.58;100.00
45731;BME280;31440;48.584;13.460;2023-03-31T06:55:59;95921.19;;;4.23;100.00
45731;BME280;31440;48.584;13.460;2023-03-31T06:59:04;95918.63;;;4.51;100.00
45731;BME280;31440;48.584;13.460;2023-03-31T07:02:09;95926.06;;;4.62;100.00
45731;BME280;31440;48.584;13.460;2023-03-31T07:05:14;95900.28;;;4.34;100.00
45731;BME280;31440;48.584;13.460;2023-03-31T07:08:18;95888.78;;;4.74;100.00
45731;BME280;31440;48.584;13.460;2023-03-31T07:11:23;95885.94;;;4.55;100.00
45731;BME280;31440;48.584;13.460;2023-03-31T07:14:28;95873.09;;;4.53;100.00
45731;BME280;31440;48.584;13.460;2023-03-31T07:17:32;95869.16;;;4.70;100.00
45731;BME280;31440;48.584;13.460;2023-03-31T07:20:37;95874.63;;;4.87;100.00
45731;BME280;31440;48.584;13.460;2023-03-31T07:23:42;95839.84;;;4.74;100.00
45731;BME280;31440;48.584;13.460;2023-03-31T07:26:46;95818.59;;;4.41;100.00
45731;BME280;31440;48.584;13.460;2023-03-31T07:29:51;95835.50;;;4.76;100.00
45731;BME280;31440;48.584;13.460;2023-03-31T07:32:56;95851.97;;;4.98;100.00
45731;BME280;31440;48.584;13.460;2023-03-31T07:36:04;95829.72;;;4.95;100.00
45731;BME280;31440;48.584;13.460;2023-03-31T07:39:17;95812.41;;;4.99;100.00
45731;BME280;31440;48.584;13.460;2023-03-31T07:42:21;95835.63;;;5.49;100.00
45731;BME280;31440;48.584;13.460;2023-03-31T07:45:26;95796.75;;;6.01;100.00
45731;BME280;31440;48.584;13.460;2023-03-31T07:48:31;95823.47;;;6.67;100.00
45731;BME280;31440;48.584;13.460;2023-03-31T07:51:35;95805.03;;;6.77;100.00
45731;BME280;31440;48.584;13.460;2023-03-31T07:54:40;95807.56;;;6.34;100.00
45731;BME280;31440;48.584;13.460;2023-03-31T07:57:45;95829.38;;;6.71;100.00
45731;BME280;31440;48.584;13.460;2023-03-31T08:00:50;95823.13;;;6.77;100.00
45731;BME280;31440;48.584;13.460;2023-03-31T08:03:55;95802.47;;;6.77;100.00
45731;BME280;31440;48.584;13.460;2023-03-31T08:07:00;95819.09;;;6.91;100.00
45731;BME280;31440;48.584;13.460;2023-03-31T08:10:07;95827.66;;;6.92;100.00
45731;BME280;31440;48.584;13.460;2023-03-31T08:13:13;95813.38;;;6.61;100.00
45731;BME280;31440;48.584;13.460;2023-03-31T08:16:17;95841.38;;;6.50;100.00
45731;BME280;31440;48.584;13.460;2023-03-31T08:19:23;95838.06;;;6.68;100.00
45731;BME280;31440;48.584;13.460;2023-03-31T08:22:27;95804.44;;;6.48;100.00
45731;BME280;31440;48.584;13.460;2023-03-31T08:25:32;95833.31;;;6.80;100.00
45731;BME280;31440;48.584;13.460;2023-03-31T08:28:37;95840.53;;;6.93;100.00
45731;BME280;31440;48.584;13.460;2023-03-31T08:31:41;95845.66;;;7.15;100.00
45731;BME280;31440;48.584;13.460;2023-03-31T08:34:46;95839.81;;;6.68;100.00
45731;BME280;31440;48.584;13.460;2023-03-31T08:37:50;95827.44;;;6.54;100.00
45731;BME280;31440;48.584;13.460;2023-03-31T08:41:02;95882.91;;;6.21;100.00
45731;BME280;31440;48.584;13.460;2023-03-31T08:44:14;95900.66;;;6.53;100.00
45731;BME280;31440;48.584;13.460;2023-03-31T08:47:22;95912.91;;;5.75;100.00
45731;BME280;31440;48.584;13.460;2023-03-31T08:50:31;95918.38;;;6.16;100.00
45731;BME280;31440;48.584;13.460;2023-03-31T08:53:44;95932.97;;;5.92;100.00
45731;BME280;31440;48.584;13.460;2023-03-31T08:56:51;95950.41;;;5.85;100.00
45731;BME280;31440;48.584;13.460;2023-03-31T08:59:56;95965.56;;;6.19;100.00
45731;BME280;31440;48.584;13.460;2023-03-31T09:03:05;95929.66;;;6.60;100.00
45731;BME280;31440;48.584;13.460;2023-03-31T09:06:40;95893.22;;;6.67;100.00
45731;BME280;31440;48.584;13.460;2023-03-31T09:10:25;95873.03;;;6.99;100.00
45731;BME280;31440;48.584;13.460;2023-03-31T09:14:20;95836.47;;;7.08;100.00
45731;BME280;31440;48.584;13.460;2023-03-31T09:17:31;95835.03;;;7.01;100.00
45731;BME280;31440;48.584;13.460;2023-03-31T09:20:39;95836.09;;;7.37;100.00
45731;BME280;31440;48.584;13.460;2023-03-31T09:24:16;95815.47;;;7.56;100.00
45731;BME280;31440;48.584;13.460;2023-03-31T09:27:26;95787.00;;;7.56;100.00
45731;BME280;31440;48.584;13.460;2023-03-31T09:30:33;95779.16;;;7.78;100.00
45731;BME280;31440;48.584;13.460;2023-03-31T09:33:44;95757.69;;;7.95;100.00
45731;BME280;31440;48.584;13.460;2023-03-31T09:36:49;95745.16;;;7.67;100.00
45731;BME280;31440;48.584;13.460;2023-03-31T09:40:03;95731.81;;;7.37;100.00
45731;BME280;31440;48.584;13.460;2023-03-31T09:43:21;95709.75;;;7.30;100.00
45731;BME280;31440;48.584;13.460;2023-03-31T09:46:33;95704.25;;;7.56;100.00
45731;BME280;31440;48.584;13.460;2023-03-31T09:49:39;95706.34;;;7.48;100.00
45731;BME280;31440;48.584;13.460;2023-03-31T09:52:58;95688.38;;;7.64;100.00
45731;BME280;31440;48.584;13.460;2023-03-31T09:56:06;95681.81;;;7.57;100.00
45731;BME280;31440;48.584;13.460;2023-03-31T09:59:20;95686.91;;;7.77;100.00
45731;BME280;31440;48.584;13.460;2023-03-31T10:05:37;95692.59;;;7.66;100.00
45731;BME280;31440;48.584;13.460;2023-03-31T10:11:58;95709.50;;;7.92;100.00
45731;BME280;31440;48.584;13.460;2023-03-31T10:15:21;95675.78;;;7.56;100.00
45731;BME280;31440;48.584;13.460;2023-03-31T10:18:34;95670.53;;;7.95;100.00
45731;BME280;31440;48.584;13.460;2023-03-31T10:21:39;95714.81;;;7.89;100.00
45731;BME280;31440;48.584;13.460;2023-03-31T10:24:44;95747.19;;;7.79;100.00
45731;BME280;31440;48.584;13.460;2023-03-31T10:27:52;95759.56;;;7.33;100.00
45731;BME280;31440;48.584;13.460;2023-03-31T10:30:58;95748.97;;;6.99;100.00
45731;BME280;31440;48.584;13.460;2023-03-31T10:34:08;95768.13;;;6.95;100.00
45731;BME280;31440;48.584;13.460;2023-03-31T10:37:17;95716.88;;;7.44;100.00
45731;BME280;31440;48.584;13.460;2023-03-31T10:40:26;95749.69;;;8.20;100.00
45731;BME280;31440;48.584;13.460;2023-03-31T10:43:40;95716.41;;;9.33;100.00
45731;BME280;31440;48.584;13.460;2023-03-31T10:46:51;95678.44;;;9.32;100.00
45731;BME280;31440;48.584;13.460;2023-03-31T10:49:56;95669.06;;;10.25;100.00
45731;BME280;31440;48.584;13.460;2023-03-31T10:53:09;95658.69;;;10.09;100.00
45731;BME280;31440;48.584;13.460;2023-03-31T10:56:28;95672.16;;;11.50;100.00
45731;BME280;31440;48.584;13.460;2023-03-31T11:09:43;95644.66;;;12.94;100.00
45731;BME280;31440;48.584;13.460;2023-03-31T11:16:44;95597.25;;;13.26;100.00
45731;BME280;31440;48.584;13.460;2023-03-31T11:20:05;95560.31;;;14.05;100.00
45731;BME280;31440;48.584;13.460;2023-03-31T11:23:26;95559.63;;;13.41;100.00
45731;BME280;31440;48.584;13.460;2023-03-31T11:26:52;95554.03;;;14.08;100.00
45731;BME280;31440;48.584;13.460;2023-03-31T11:30:21;95579.72;;;14.73;100.00
45731;BME280;31440;48.584;13.460;2023-03-31T11:33:43;95549.69;;;15.67;100.00
45731;BME280;31440;48.584;13.460;2023-03-31T11:43:41;95513.50;;;15.50;100.00
45731;BME280;31440;48.584;13.460;2023-03-31T11:46:51;95522.56;;;15.24;100.00
45731;BME280;31440;48.584;13.460;2023-03-31T11:50:03;95507.31;;;16.06;100.00
45731;BME280;31440;48.584;13.460;2023-03-31T11:53:18;95517.94;;;15.16;100.00
45731;BME280;31440;48.584;13.460;2023-03-31T11:56:34;95486.84;;;14.89;100.00
45731;BME280;31440;48.584;13.460;2023-03-31T11:59:41;95490.97;;;14.58;100.00
45731;BME280;31440;48.584;13.460;2023-03-31T12:03:07;95516.16;;;13.66;100.00
45731;BME280;31440;48.584;13.460;2023-03-31T12:06:17;95485.16;;;13.61;100.00
45731;BME280;31440;48.584;13.460;2023-03-31T12:10:04;95506.16;;;13.59;100.00
45731;BME280;31440;48.584;13.460;2023-03-31T12:16:47;95486.50;;;12.68;100.00
45731;BME280;31440;48.584;13.460;2023-03-31T12:19:57;95491.78;;;12.02;100.00
45731;BME280;31440;48.584;13.460;2023-03-31T12:23:05;95524.44;;;12.72;100.00
45731;BME280;31440;48.584;13.460;2023-03-31T12:29:46;95489.81;;;12.83;91.79
45731;BME280;31440;48.584;13.460;2023-03-31T12:32:52;95509.00;;;12.94;90.41
45731;BME280;31440;48.584;13.460;2023-03-31T12:39:43;95492.19;;;12.73;94.42
45731;BME280;31440;48.584;13.460;2023-03-31T12:42:57;95480.63;;;12.00;85.07
45731;BME280;31440;48.584;13.460;2023-03-31T12:53:46;95453.81;;;11.45;87.34
45731;BME280;31440;48.584;13.460;2023-03-31T12:57:03;95410.13;;;11.24;89.71
45731;BME280;31440;48.584;13.460;2023-03-31T13:10:56;95465.16;;;11.44;95.85
45731;BME280;31440;48.584;13.460;2023-03-31T13:14:21;95469.22;;;10.93;100.00
45731;BME280;31440;48.584;13.460;2023-03-31T13:20:32;95463.84;;;10.39;100.00
45731;BME280;31440;48.584;13.460;2023-03-31T13:23:43;95438.38;;;9.72;100.00
45731;BME280;31440;48.584;13.460;2023-03-31T13:26:51;95463.34;;;10.04;100.00
45731;BME280;31440;48.584;13.460;2023-03-31T13:29:59;95447.91;;;10.17;100.00
45731;BME280;31440;48.584;13.460;2023-03-31T13:33:13;95437.41;;;9.59;100.00
45731;BME280;31440;48.584;13.460;2023-03-31T13:36:36;95419.66;;;9.97;100.00
45731;BME280;31440;48.584;13.460;2023-03-31T13:50:11;95411.00;;;9.66;100.00
45731;BME280;31440;48.584;13.460;2023-03-31T13:56:55;95375.91;;;9.61;100.00
45731;BME280;31440;48.584;13.460;2023-03-31T14:00:41;95373.31;;;9.75;100.00
45731;BME280;31440;48.584;13.460;2023-03-31T14:04:00;95375.69;;;9.79;100.00
45731;BME280;31440;48.584;13.460;2023-03-31T14:07:14;95364.78;;;9.73;100.00
45731;BME280;31440;48.584;13.460;2023-03-31T14:10:24;95366.47;;;9.74;100.00
45731;BME280;31440;48.584;13.460;2023-03-31T14:13:29;95360.78;;;9.97;100.00
45731;BME280;31440;48.584;13.460;2023-03-31T14:16:39;95352.59;;;9.45;100.00
45731;BME280;31440;48.584;13.460;2023-03-31T14:37:16;95339.56;;;9.01;100.00
45731;BME280;31440;48.584;13.460;2023-03-31T14:40:22;95381.16;;;9.29;100.00
45731;BME280;31440;48.584;13.460;2023-03-31T14:43:30;95396.50;;;9.18;100.00
45731;BME280;31440;48.584;13.460;2023-03-31T14:46:37;95405.34;;;9.14;100.00
45731;BME280;31440;48.584;13.460;2023-03-31T14:49:42;95385.00;;;9.38;100.00
45731;BME280;31440;48.584;13.460;2023-03-31T14:52:48;95386.38;;;9.73;100.00
45731;BME280;31440;48.584;13.460;2023-03-31T14:56:00;95393.19;;;9.30;100.00
45731;BME280;31440;48.584;13.460;2023-03-31T14:59:07;95355.06;;;9.46;100.00
45731;BME280;31440;48.584;13.460;2023-03-31T15:02:16;95372.78;;;9.40;100.00
45731;BME280;31440;48.584;13.460;2023-03-31T15:05:31;95411.94;;;9.35;100.00
45731;BME280;31440;48.584;13.460;2023-03-31T15:08:37;95385.28;;;9.18;100.00
45731;BME280;31440;48.584;13.460;2023-03-31T15:11:43;95442.31;;;9.18;100.00
45731;BME280;31440;48.584;13.460;2023-03-31T15:14:56;95469.50;;;8.95;100.00
45731;BME280;31440;48.584;13.460;2023-03-31T15:18:02;95481.94;;;8.39;100.00
45731;BME280;31440;48.584;13.460;2023-03-31T15:21:09;95480.63;;;8.81;100.00
45731;BME280;31440;48.584;13.460;2023-03-31T15:24:22;95465.50;;;8.73;100.00
45731;BME280;31440;48.584;13.460;2023-03-31T15:27:36;95461.44;;;8.19;100.00
45731;BME280;31440;48.584;13.460;2023-03-31T15:30:43;95454.78;;;8.14;100.00
45731;BME280;31440;48.584;13.460;2023-03-31T15:33:52;95491.59;;;8.53;100.00
45731;BME280;31440;48.584;13.460;2023-03-31T15:36:58;95487.22;;;8.38;100.00
45731;BME280;31440;48.584;13.460;2023-03-31T15:40:08;95454.25;;;8.24;100.00
45731;BME280;31440;48.584;13.460;2023-03-31T15:46:54;95482.75;;;8.57;100.00
45731;BME280;31440;48.584;13.460;2023-03-31T15:53:29;95481.94;;;8.39;100.00
45731;BME280;31440;48.584;13.460;2023-03-31T15:56:43;95476.44;;;8.46;100.00
45731;BME280;31440;48.584;13.460;2023-03-31T15:59:50;95449.84;;;8.26;100.00
45731;BME280;31440;48.584;13.460;2023-03-31T16:03:01;95470.53;;;8.26;100.00
45731;BME280;31440;48.584;13.460;2023-03-31T16:06:14;95461.03;;;8.27;100.00
45731;BME280;31440;48.584;13.460;2023-03-31T16:10:14;95430.41;;;8.18;100.00
45731;BME280;31440;48.584;13.460;2023-03-31T16:15:53;95440.56;;;8.71;100.00
45731;BME280;31440;48.584;13.460;2023-03-31T16:19:05;95454.59;;;8.67;100.00
45731;BME280;31440;48.584;13.460;2023-03-31T16:22:25;95435.31;;;8.39;100.00
45731;BME280;31440;48.584;13.460;2023-03-31T16:25:38;95431.09;;;8.38;100.00
45731;BME280;31440;48.584;13.460;2023-03-31T16:28:49;95466.34;;;8.74;100.00
45731;BME280;31440;48.584;13.460;2023-03-31T16:32:14;95447.69;;;8.83;100.00
45731;BME280;31440;48.584;13.460;2023-03-31T16:35:20;95421.25;;;8.76;100.00
45731;BME280;31440;48.584;13.460;2023-03-31T16:38:27;95443.47;;;8.65;100.00
45731;BME280;31440;48.584;13.460;2023-03-31T16:41:33;95421.81;;;8.17;100.00
45731;BME280;31440;48.584;13.460;2023-03-31T16:44:38;95444.03;;;8.21;100.00
45731;BME280;31440;48.584;13.460;2023-03-31T16:47:44;95472.63;;;8.02;100.00
45731;BME280;31440;48.584;13.460;2023-03-31T16:50:52;95467.03;;;8.27;100.00
45731;BME280;31440;48.584;13.460;2023-03-31T16:53:57;95440.81;;;7.83;100.00
45731;BME280;31440;48.584;13.460;2023-03-31T16:57:02;95468.19;;;8.22;100.00
45731;BME280;31440;48.584;13.460;2023-03-31T17:00:08;95443.13;;;8.22;100.00
45731;BME280;31440;48.584;13.460;2023-03-31T17:03:12;95444.66;;;8.26;100.00
45731;BME280;31440;48.584;13.460;2023-03-31T17:06:19;95468.63;;;8.13;100.00
45731;BME280;31440;48.584;13.460;2023-03-31T17:09:23;95439.09;;;8.17;100.00
45731;BME280;31440;48.584;13.460;2023-03-31T17:12:28;95445.63;;;8.06;100.00
45731;BME280;31440;48.584;13.460;2023-03-31T17:15:33;95437.72;;;8.09;100.00
45731;BME280;31440;48.584;13.460;2023-03-31T17:18:40;95425.13;;;8.21;100.00
45731;BME280;31440;48.584;13.460;2023-03-31T17:21:44;95412.75;;;8.26;100.00
45731;BME280;31440;48.584;13.460;2023-03-31T17:24:49;95412.75;;;8.08;100.00
45731;BME280;31440;48.584;13.460;2023-03-31T17:28:00;95419.94;;;8.21;100.00
45731;BME280;31440;48.584;13.460;2023-03-31T17:31:19;95431.78;;;8.07;100.00
45731;BME280;31440;48.584;13.460;2023-03-31T17:34:24;95451.50;;;8.10;100.00
45731;BME280;31440;48.584;13.460;2023-03-31T17:37:29;95468.34;;;7.84;100.00
45731;BME280;31440;48.584;13.460;2023-03-31T17:40:34;95445.56;;;7.39;100.00
45731;BME280;31440;48.584;13.460;2023-03-31T17:43:43;95440.47;;;7.37;100.00
45731;BME280;31440;48.584;13.460;2023-03-31T17:46:47;95426.34;;;7.62;100.00
45731;BME280;31440;48.584;13.460;2023-03-31T17:49:52;95451.81;;;7.87;100.00
45731;BME280;31440;48.584;13.460;2023-03-31T17:52:58;95438.38;;;7.80;100.00
45731;BME280;31440;48.584;13.460;2023-03-31T17:56:04;95428.72;;;7.66;100.00
45731;BME280;31440;48.584;13.460;2023-03-31T17:59:09;95428.16;;;7.43;100.00
45731;BME280;31440;48.584;13.460;2023-03-31T18:02:14;95440.81;;;7.13;100.00
45731;BME280;31440;48.584;13.460;2023-03-31T18:05:19;95504.44;;;6.96;100.00
45731;BME280;31440;48.584;13.460;2023-03-31T18:08:24;95542.84;;;6.85;100.00
45731;BME280;31440;48.584;13.460;2023-03-31T18:11:29;95489.03;;;6.76;100.00
45731;BME280;31440;48.584;13.460;2023-03-31T18:14:34;95453.69;;;6.39;100.00
45731;BME280;31440;48.584;13.460;2023-03-31T18:17:39;95486.13;;;6.45;100.00
45731;BME280;31440;48.584;13.460;2023-03-31T18:20:44;95466.31;;;6.45;100.00
45731;BME280;31440;48.584;13.460;2023-03-31T18:23:49;95491.16;;;6.48;100.00
45731;BME280;31440;48.584;13.460;2023-03-31T18:26:58;95496.31;;;6.48;100.00
45731;BME280;31440;48.584;13.460;2023-03-31T18:30:03;95478.91;;;6.12;100.00
45731;BME280;31440;48.584;13.460;2023-03-31T18:33:09;95510.97;;;6.47;100.00
45731;BME280;31440;48.584;13.460;2023-03-31T18:36:16;95523.09;;;6.45;100.00
45731;BME280;31440;48.584;13.460;2023-03-31T18:39:21;95514.97;;;6.54;100.00
45731;BME280;31440;48.584;13.460;2023-03-31T18:42:26;95504.00;;;6.49;100.00
45731;BME280;31440;48.584;13.460;2023-03-31T18:45:30;95493.59;;;6.10;100.00
45731;BME280;31440;48.584;13.460;2023-03-31T18:48:36;95529.31;;;6.41;100.00